Flight Track Log - Related Links

Times and Time Zones

All times are in EDT time to prevent confusion due to time zone crossing. See the EJM53 flight status page for this flight to view local times or setup timezone preferences in your user account.

Time Position Orientation Groundspeed Altitude Reporting Facility
EDT Latitude Longitude Course Direction KTS MPH feet Rate Location/Type
Thu 07:55:56 PM 41.7167 -70.7000 346° North 255 293 4,000  Level KA90
Thu 07:56:56 PM 41.7667 -70.7500 323° Northwest 260 299 4,000  Level KA90
Thu 07:57:00 PM 41.9022 -70.5694 317° Northwest  Level FlightAware Approximate
Thu 07:57:56 PM 41.8333 -70.8167 323° Northwest 256 295 4,000  Level KA90
Thu 07:58:00 PM 41.9658 -70.6488 317° Northwest  Level FlightAware Approximate
Thu 07:58:56 PM 41.9000 -70.8667 331° Northwest 253 291 4,000  Level KA90
Thu 07:59:00 PM 42.0290 -70.7288 317° Northwest  Level FlightAware Approximate
Thu 07:59:56 PM 41.9500 -70.9167 323° Northwest 257 296 4,000  Level KA90
Thu 08:00:00 PM 42.0922 -70.8088 317° Northwest  Level FlightAware Approximate
Thu 08:00:56 PM 41.9500 -71.0167 270° West 280 322 4,000  Level KA90
Thu 08:01:56 PM 41.9333 -71.1167 257° West 278 320 4,000  Level KA90
Thu 08:02:56 PM 41.9667 -71.2000 298° West 264 304 4,000  Level KA90
Thu 08:03:56 PM 42.0167 -71.2667 315° West 257 296 4,000  Level KA90
Thu 08:04:57 PM 42.0833 -71.3000 340° North 255 293 4,000  Level KA90
Thu 08:06:02 PM 42.1500 -71.3500 331° Northwest 254 292 4,000 -336 Level KA90
Thu 08:07:02 PM 42.2167 -71.4000 331° Northwest 255 293 3,300 -500 Descending KA90
Thu 08:08:02 PM 42.2667 -71.4500 324° Northwest 226 260 3,000 -150 Descending KA90
Thu 08:09:02 PM 42.3167 -71.4833 334° Northwest 206 237 3,000  Level KA90
Thu 08:10:02 PM 42.3667 -71.5167 334° Northwest 207 238 3,000  Level KA90
Thu 08:11:02 PM 42.4167 -71.5500 334° Northwest 197 227 3,000  Level KA90
Thu 08:12:03 PM 42.4833 -71.5500 360° North 192 221 3,000 -347 Level KA90
Thu 08:13:03 PM 42.5000 -71.5000 66° East 184 212 2,300 -550 Descending KA90
Thu 08:14:03 PM 42.4833 -71.4333 109° East 173 199 1,900 -504 Descending KA90
Thu 08:15:02 PM 42.4833 -71.3833 90° East 155 178 1,300 -650 Descending KA90
Thu 08:16:03 PM 42.4833 -71.3333 90° East 128 147 600 -689 Descending KA90
Thu 08:18:00 PM 42.4667 -71.2833 43° Northeast  Level FlightAware Approximate

Login

Don't have an account? Register now (free) for customized features, flight alerts, and more!